sensor_id;sensor_type;location;lat;lon;timestamp;pressure;altitude;pressure_sealevel;temperature;humidity
57086;BME280;42964;42.910;23.792;2023-04-23T00:03:05;97667.53;;;7.35;86.71
57086;BME280;42964;42.910;23.792;2023-04-23T00:08:08;97686.47;;;7.35;86.91
57086;BME280;42964;42.910;23.792;2023-04-23T00:13:08;97681.25;;;7.28;87.04
57086;BME280;42964;42.910;23.792;2023-04-23T00:18:07;97680.31;;;7.19;87.13
57086;BME280;42964;42.910;23.792;2023-04-23T00:23:06;97676.63;;;6.99;88.37
57086;BME280;42964;42.910;23.792;2023-04-23T00:28:05;97686.81;;;6.91;88.36
57086;BME280;42964;42.910;23.792;2023-04-23T00:33:04;97685.03;;;6.86;88.69
57086;BME280;42964;42.910;23.792;2023-04-23T00:38:04;97683.28;;;6.81;88.10
57086;BME280;42964;42.910;23.792;2023-04-23T00:43:03;97679.78;;;6.76;88.20
57086;BME280;42964;42.910;23.792;2023-04-23T00:48:02;97685.75;;;6.74;88.46
57086;BME280;42964;42.910;23.792;2023-04-23T00:53:01;97690.03;;;6.72;88.93
57086;BME280;42964;42.910;23.792;2023-04-23T00:58:00;97687.38;;;6.67;89.71
57086;BME280;42964;42.910;23.792;2023-04-23T01:03:00;97696.81;;;6.65;89.61
57086;BME280;42964;42.910;23.792;2023-04-23T01:07:59;97684.81;;;6.67;89.97
57086;BME280;42964;42.910;23.792;2023-04-23T01:12:58;97687.38;;;6.67;89.77
57086;BME280;42964;42.910;23.792;2023-04-23T01:17:57;97697.56;;;6.56;90.13
57086;BME280;42964;42.910;23.792;2023-04-23T01:22:57;97695.72;;;6.48;90.86
57086;BME280;42964;42.910;23.792;2023-04-23T01:27:56;97690.25;;;6.28;91.89
57086;BME280;42964;42.910;23.792;2023-04-23T01:32:56;97680.88;;;6.31;91.75
57086;BME280;42964;42.910;23.792;2023-04-23T01:37:58;97687.72;;;6.29;90.58
57086;BME280;42964;42.910;23.792;2023-04-23T01:42:59;97693.69;;;6.27;90.91
57086;BME280;42964;42.910;23.792;2023-04-23T01:48:01;97698.81;;;6.25;90.86
57086;BME280;42964;42.910;23.792;2023-04-23T01:53:00;97698.81;;;6.25;90.07
57086;BME280;42964;42.910;23.792;2023-04-23T01:57:59;97695.25;;;6.15;90.66
57086;BME280;42964;42.910;23.792;2023-04-23T02:02:58;97702.16;;;6.18;90.33
57086;BME280;42964;42.910;23.792;2023-04-23T02:07:57;97706.41;;;6.16;90.77
57086;BME280;42964;42.910;23.792;2023-04-23T02:12:57;97660.38;;;5.83;90.61
57086;BME280;42964;42.910;23.792;2023-04-23T02:17:56;97702.00;;;6.09;90.94
57086;BME280;42964;42.910;23.792;2023-04-23T02:22:55;97712.25;;;6.06;90.21
57086;BME280;42964;42.910;23.792;2023-04-23T02:27:54;97696.59;;;5.92;90.59
57086;BME280;42964;42.910;23.792;2023-04-23T02:32:55;97703.50;;;5.94;90.40
57086;BME280;42964;42.910;23.792;2023-04-23T02:37:54;97656.69;;;5.65;90.20
57086;BME280;42964;42.910;23.792;2023-04-23T02:42:53;97699.09;;;5.87;90.29
57086;BME280;42964;42.910;23.792;2023-04-23T02:47:52;97697.38;;;5.86;90.78
57086;BME280;42964;42.910;23.792;2023-04-23T02:52:52;97699.03;;;5.84;90.52
57086;BME280;42964;42.910;23.792;2023-04-23T02:57:51;97691.19;;;5.78;90.42
57086;BME280;42964;42.910;23.792;2023-04-23T03:02:50;97693.75;;;5.76;90.63
57086;BME280;42964;42.910;23.792;2023-04-23T03:07:49;97698.78;;;5.69;90.74
57086;BME280;42964;42.910;23.792;2023-04-23T03:12:48;97689.22;;;5.62;90.45
57086;BME280;42964;42.910;23.792;2023-04-23T03:17:47;97694.22;;;5.54;89.96
57086;BME280;42964;42.910;23.792;2023-04-23T03:22:46;97629.91;;;5.07;90.69
57086;BME280;42964;42.910;23.792;2023-04-23T03:27:45;97700.94;;;5.46;90.42
57086;BME280;42964;42.910;23.792;2023-04-23T03:32:44;97703.41;;;5.41;90.49
57086;BME280;42964;42.910;23.792;2023-04-23T03:37:43;97707.75;;;5.44;90.54
57086;BME280;42964;42.910;23.792;2023-04-23T03:42:42;97710.31;;;5.44;91.22
57086;BME280;42964;42.910;23.792;2023-04-23T03:47:41;97705.13;;;5.39;91.09
57086;BME280;42964;42.910;23.792;2023-04-23T03:52:40;97721.59;;;5.50;91.60
57086;BME280;42964;42.910;23.792;2023-04-23T03:57:39;97725.97;;;5.54;91.59
57086;BME280;42964;42.910;23.792;2023-04-23T04:02:38;97732.09;;;5.61;91.47
57086;BME280;42964;42.910;23.792;2023-04-23T04:07:38;97732.28;;;5.70;91.08
57086;BME280;42964;42.910;23.792;2023-04-23T04:12:38;97732.16;;;5.64;91.41
57086;BME280;42964;42.910;23.792;2023-04-23T04:17:37;97734.72;;;5.63;90.29
57086;BME280;42964;42.910;23.792;2023-04-23T04:22:36;97740.78;;;5.66;91.07
57086;BME280;42964;42.910;23.792;2023-04-23T04:27:35;97739.44;;;5.87;90.65
57086;BME280;42964;42.910;23.792;2023-04-23T04:32:35;97722.91;;;5.75;90.12
57086;BME280;42964;42.910;23.792;2023-04-23T04:37:36;97727.22;;;5.76;90.08
57086;BME280;42964;42.910;23.792;2023-04-23T04:42:35;97735.75;;;5.74;90.47
57086;BME280;42964;42.910;23.792;2023-04-23T04:47:34;97737.38;;;5.69;89.86
57086;BME280;42964;42.910;23.792;2023-04-23T04:52:34;97714.06;;;5.60;89.92
57086;BME280;42964;42.910;23.792;2023-04-23T04:57:33;97756.03;;;6.03;90.68
57086;BME280;42964;42.910;23.792;2023-04-23T05:02:32;97762.13;;;6.09;91.20
57086;BME280;42964;42.910;23.792;2023-04-23T05:07:31;97753.94;;;6.35;90.85
57086;BME280;42964;42.910;23.792;2023-04-23T05:12:30;97761.31;;;6.67;91.47
57086;BME280;42964;42.910;23.792;2023-04-23T05:17:29;97750.53;;;6.94;90.36
57086;BME280;42964;42.910;23.792;2023-04-23T05:22:28;97755.84;;;7.06;89.96
57086;BME280;42964;42.910;23.792;2023-04-23T05:27:28;97754.25;;;7.19;89.63
57086;BME280;42964;42.910;23.792;2023-04-23T05:32:27;97752.63;;;7.25;89.24
57086;BME280;42964;42.910;23.792;2023-04-23T05:37:26;97763.09;;;7.36;88.71
57086;BME280;42964;42.910;23.792;2023-04-23T05:42:25;97736.34;;;7.31;88.73
57086;BME280;42964;42.910;23.792;2023-04-23T05:47:24;97754.75;;;7.57;88.49
57086;BME280;42964;42.910;23.792;2023-04-23T05:52:23;97680.38;;;7.29;88.28
57086;BME280;42964;42.910;23.792;2023-04-23T05:57:22;97750.72;;;7.84;88.32
57086;BME280;42964;42.910;23.792;2023-04-23T06:02:21;97747.41;;;7.97;89.28
57086;BME280;42964;42.910;23.792;2023-04-23T06:07:21;97747.72;;;8.34;86.94
57086;BME280;42964;42.910;23.792;2023-04-23T06:12:20;97744.38;;;8.52;87.00
57086;BME280;42964;42.910;23.792;2023-04-23T06:17:19;97741.84;;;8.61;86.15
57086;BME280;42964;42.910;23.792;2023-04-23T06:22:17;97738.50;;;8.76;86.06
57086;BME280;42964;42.910;23.792;2023-04-23T06:27:16;97736.03;;;8.98;86.71
57086;BME280;42964;42.910;23.792;2023-04-23T06:32:16;97729.22;;;9.17;86.05
57086;BME280;42964;42.910;23.792;2023-04-23T06:37:15;97730.13;;;9.26;85.85
57086;BME280;42964;42.910;23.792;2023-04-23T06:42:14;97731.84;;;9.27;85.57
57086;BME280;42964;42.910;23.792;2023-04-23T06:47:13;97716.38;;;9.35;84.75
57086;BME280;42964;42.910;23.792;2023-04-23T06:52:12;97721.59;;;9.58;85.05
57086;BME280;42964;42.910;23.792;2023-04-23T06:57:10;97726.84;;;9.70;84.84
57086;BME280;42964;42.910;23.792;2023-04-23T07:02:09;97721.69;;;9.92;86.74
57086;BME280;42964;42.910;23.792;2023-04-23T07:07:08;97717.34;;;10.28;85.38
57086;BME280;42964;42.910;23.792;2023-04-23T07:12:07;97720.78;;;10.47;85.38
57086;BME280;42964;42.910;23.792;2023-04-23T07:17:06;97718.19;;;10.57;84.94
57086;BME280;42964;42.910;23.792;2023-04-23T07:22:05;97716.41;;;10.81;84.73
57086;BME280;42964;42.910;23.792;2023-04-23T07:27:05;97689.53;;;11.07;82.65
57086;BME280;42964;42.910;23.792;2023-04-23T07:32:04;97711.88;;;11.46;81.72
57086;BME280;42964;42.910;23.792;2023-04-23T07:37:03;97707.28;;;11.88;81.21
57086;BME280;42964;42.910;23.792;2023-04-23T07:42:02;97707.06;;;12.17;78.79
57086;BME280;42964;42.910;23.792;2023-04-23T07:47:01;97686.84;;;12.48;75.88
57086;BME280;42964;42.910;23.792;2023-04-23T07:52:00;97681.94;;;13.01;71.80
57086;BME280;42964;42.910;23.792;2023-04-23T07:56:59;97690.84;;;13.53;69.75
57086;BME280;42964;42.910;23.792;2023-04-23T08:01:58;97684.16;;;13.95;62.59
57086;BME280;42964;42.910;23.792;2023-04-23T08:06:56;97675.41;;;14.52;59.92
57086;BME280;42964;42.910;23.792;2023-04-23T08:11:56;97669.34;;;14.97;57.74
57086;BME280;42964;42.910;23.792;2023-04-23T08:16:55;97667.63;;;15.38;56.42
57086;BME280;42964;42.910;23.792;2023-04-23T08:21:54;97620.56;;;15.38;54.71
57086;BME280;42964;42.910;23.792;2023-04-23T08:26:52;97669.56;;;16.07;52.59
57086;BME280;42964;42.910;23.792;2023-04-23T08:31:51;97654.78;;;16.39;49.78
57086;BME280;42964;42.910;23.792;2023-04-23T08:36:50;97650.03;;;16.21;50.46
57086;BME280;42964;42.910;23.792;2023-04-23T08:41:53;97651.22;;;16.42;51.71
57086;BME280;42964;42.910;23.792;2023-04-23T08:46:53;97641.31;;;16.53;49.95
57086;BME280;42964;42.910;23.792;2023-04-23T08:51:53;97631.63;;;16.57;47.83
57086;BME280;42964;42.910;23.792;2023-04-23T08:56:56;97633.19;;;16.64;48.36
57086;BME280;42964;42.910;23.792;2023-04-23T09:01:56;97636.25;;;16.80;47.92
57086;BME280;42964;42.910;23.792;2023-04-23T09:06:57;97633.53;;;17.14;48.25
57086;BME280;42964;42.910;23.792;2023-04-23T09:11:56;97632.31;;;17.26;46.06
57086;BME280;42964;42.910;23.792;2023-04-23T09:16:56;97623.97;;;17.43;46.83
57086;BME280;42964;42.910;23.792;2023-04-23T09:21:56;97612.06;;;17.59;43.66
57086;BME280;42964;42.910;23.792;2023-04-23T09:26:57;97610.69;;;17.75;43.29
57086;BME280;42964;42.910;23.792;2023-04-23T09:32:04;97613.75;;;17.90;43.91
57086;BME280;42964;42.910;23.792;2023-04-23T09:37:04;97606.63;;;18.20;42.21
57086;BME280;42964;42.910;23.792;2023-04-23T09:42:05;97602.31;;;18.43;41.71
57086;BME280;42964;42.910;23.792;2023-04-23T09:47:08;97574.72;;;18.31;41.70
57086;BME280;42964;42.910;23.792;2023-04-23T09:52:07;97547.78;;;18.49;41.32
57086;BME280;42964;42.910;23.792;2023-04-23T09:57:07;97583.63;;;18.77;40.78
57086;BME280;42964;42.910;23.792;2023-04-23T10:02:06;97579.47;;;18.95;39.80
57086;BME280;42964;42.910;23.792;2023-04-23T10:07:06;97569.66;;;19.22;38.10
57086;BME280;42964;42.910;23.792;2023-04-23T10:12:06;97563.91;;;18.89;38.56
57086;BME280;42964;42.910;23.792;2023-04-23T10:17:08;97566.75;;;18.82;39.63
57086;BME280;42964;42.910;23.792;2023-04-23T10:22:09;97559.78;;;19.05;40.67
57086;BME280;42964;42.910;23.792;2023-04-23T10:27:12;97555.03;;;19.37;37.29
57086;BME280;42964;42.910;23.792;2023-04-23T10:32:13;97551.38;;;18.95;36.77
57086;BME280;42964;42.910;23.792;2023-04-23T10:37:13;97471.78;;;18.19;36.82
57086;BME280;42964;42.910;23.792;2023-04-23T10:42:14;97537.44;;;18.93;36.89
57086;BME280;42964;42.910;23.792;2023-04-23T10:47:15;97534.72;;;19.18;37.20
57086;BME280;42964;42.910;23.792;2023-04-23T10:52:16;97531.78;;;19.70;38.21
57086;BME280;42964;42.910;23.792;2023-04-23T10:57:15;97535.38;;;20.31;34.58
57086;BME280;42964;42.910;23.792;2023-04-23T11:02:14;97526.56;;;20.11;33.48
57086;BME280;42964;42.910;23.792;2023-04-23T11:07:13;97516.53;;;20.40;32.63
57086;BME280;42964;42.910;23.792;2023-04-23T11:17:13;97506.16;;;21.50;32.72
57086;BME280;42964;42.910;23.792;2023-04-23T11:22:15;97505.09;;;21.89;31.44
57086;BME280;42964;42.910;23.792;2023-04-23T11:27:17;97506.50;;;21.79;31.00
57086;BME280;42964;42.910;23.792;2023-04-23T11:32:17;97509.13;;;22.31;31.36
57086;BME280;42964;42.910;23.792;2023-04-23T11:37:17;97509.94;;;21.99;29.46
57086;BME280;42964;42.910;23.792;2023-04-23T11:42:16;97494.06;;;21.81;30.40
57086;BME280;42964;42.910;23.792;2023-04-23T11:47:17;97498.41;;;21.82;28.45
57086;BME280;42964;42.910;23.792;2023-04-23T11:52:16;97492.66;;;21.01;28.31
57086;BME280;42964;42.910;23.792;2023-04-23T11:57:15;97494.34;;;21.02;28.43
57086;BME280;42964;42.910;23.792;2023-04-23T12:02:14;97486.19;;;20.70;30.60
57086;BME280;42964;42.910;23.792;2023-04-23T12:07:14;97482.94;;;20.45;30.72
57086;BME280;42964;42.910;23.792;2023-04-23T12:12:14;97476.84;;;20.63;30.69
57086;BME280;42964;42.910;23.792;2023-04-23T12:17:14;97469.22;;;20.37;30.17
57086;BME280;42964;42.910;23.792;2023-04-23T12:22:13;97469.38;;;19.93;30.86
57086;BME280;42964;42.910;23.792;2023-04-23T12:27:18;97468.19;;;20.20;30.77
57086;BME280;42964;42.910;23.792;2023-04-23T12:32:17;97466.00;;;20.69;30.82
57086;BME280;42964;42.910;23.792;2023-04-23T12:37:29;97454.34;;;21.11;31.24
57086;BME280;42964;42.910;23.792;2023-04-23T12:42:28;97453.13;;;21.55;31.32
57086;BME280;42964;42.910;23.792;2023-04-23T12:47:27;97459.56;;;21.84;30.15
57086;BME280;42964;42.910;23.792;2023-04-23T12:52:27;97455.75;;;22.41;30.89
57086;BME280;42964;42.910;23.792;2023-04-23T12:57:26;97445.25;;;22.72;28.93
57086;BME280;42964;42.910;23.792;2023-04-23T13:02:25;97444.91;;;22.94;30.55
57086;BME280;42964;42.910;23.792;2023-04-23T13:07:24;97438.78;;;22.94;30.80
57086;BME280;42964;42.910;23.792;2023-04-23T13:12:23;97445.69;;;22.96;29.76
57086;BME280;42964;42.910;23.792;2023-04-23T13:17:22;97454.34;;;22.67;30.29
57086;BME280;42964;42.910;23.792;2023-04-23T13:22:23;97452.88;;;22.12;29.06
57086;BME280;42964;42.910;23.792;2023-04-23T13:27:27;97457.75;;;21.50;31.02
57086;BME280;42964;42.910;23.792;2023-04-23T13:32:26;97466.56;;;20.95;31.83
57086;BME280;42964;42.910;23.792;2023-04-23T13:37:30;97478.69;;;20.61;34.96
57086;BME280;42964;42.910;23.792;2023-04-23T13:42:29;97481.09;;;20.26;35.01
57086;BME280;42964;42.910;23.792;2023-04-23T13:47:28;97475.25;;;19.99;34.06
57086;BME280;42964;42.910;23.792;2023-04-23T13:52:31;97473.09;;;19.89;34.28
57086;BME280;42964;42.910;23.792;2023-04-23T13:57:30;97469.81;;;19.19;33.87
57086;BME280;42964;42.910;23.792;2023-04-23T14:02:29;97464.72;;;18.45;36.50
57086;BME280;42964;42.910;23.792;2023-04-23T14:07:28;97450.78;;;18.19;36.49
57086;BME280;42964;42.910;23.792;2023-04-23T14:12:27;97447.91;;;18.51;33.95
57086;BME280;42964;42.910;23.792;2023-04-23T14:17:27;97441.09;;;18.69;34.20
57086;BME280;42964;42.910;23.792;2023-04-23T14:22:26;97442.03;;;18.66;33.08
57086;BME280;42964;42.910;23.792;2023-04-23T14:27:26;97443.63;;;18.48;34.56
57086;BME280;42964;42.910;23.792;2023-04-23T14:32:25;97443.31;;;18.32;36.46
57086;BME280;42964;42.910;23.792;2023-04-23T14:37:24;97421.47;;;18.08;36.91
57086;BME280;42964;42.910;23.792;2023-04-23T14:42:22;97420.28;;;17.92;37.98
57086;BME280;42964;42.910;23.792;2023-04-23T14:47:21;97394.31;;;18.31;36.55
57086;BME280;42964;42.910;23.792;2023-04-23T14:52:20;97409.19;;;18.78;36.48
57086;BME280;42964;42.910;23.792;2023-04-23T14:57:19;97411.22;;;18.93;33.83
57086;BME280;42964;42.910;23.792;2023-04-23T15:02:18;97407.84;;;18.90;33.96
57086;BME280;42964;42.910;23.792;2023-04-23T15:07:18;97367.25;;;18.75;34.25
57086;BME280;42964;42.910;23.792;2023-04-23T15:12:53;97407.56;;;18.97;33.75
57086;BME280;42964;42.910;23.792;2023-04-23T15:17:56;97404.13;;;18.95;33.55
57086;BME280;42964;42.910;23.792;2023-04-23T15:22:57;97388.41;;;18.94;33.88
57086;BME280;42964;42.910;23.792;2023-04-23T15:27:56;97391.94;;;19.15;33.79
57086;BME280;42964;42.910;23.792;2023-04-23T15:32:55;97386.44;;;18.99;32.79
57086;BME280;42964;42.910;23.792;2023-04-23T15:37:54;97377.53;;;18.81;33.11
57086;BME280;42964;42.910;23.792;2023-04-23T15:42:53;97389.25;;;18.94;32.57
57086;BME280;42964;42.910;23.792;2023-04-23T15:47:52;97391.84;;;18.96;33.00
57086;BME280;42964;42.910;23.792;2023-04-23T15:52:52;97386.34;;;19.02;33.40
57086;BME280;42964;42.910;23.792;2023-04-23T15:57:50;97383.75;;;19.00;33.18
57086;BME280;42964;42.910;23.792;2023-04-23T16:02:49;97374.38;;;18.95;31.83
57086;BME280;42964;42.910;23.792;2023-04-23T16:07:49;97342.66;;;18.54;33.91
57086;BME280;42964;42.910;23.792;2023-04-23T16:12:48;97378.34;;;18.59;34.00
57086;BME280;42964;42.910;23.792;2023-04-23T16:17:47;97372.63;;;18.26;33.70
57086;BME280;42964;42.910;23.792;2023-04-23T16:22:46;97376.91;;;18.05;33.83
57086;BME280;42964;42.910;23.792;2023-04-23T16:27:45;97378.63;;;18.06;34.67
57086;BME280;42964;42.910;23.792;2023-04-23T16:32:44;97385.28;;;17.91;35.58
57086;BME280;42964;42.910;23.792;2023-04-23T16:37:43;97383.16;;;17.77;36.25
57086;BME280;42964;42.910;23.792;2023-04-23T16:42:42;97373.88;;;17.67;37.42
57086;BME280;42964;42.910;23.792;2023-04-23T16:47:41;97366.44;;;17.55;38.42
57086;BME280;42964;42.910;23.792;2023-04-23T16:52:41;97381.59;;;17.47;38.63
57086;BME280;42964;42.910;23.792;2023-04-23T16:57:40;97383.78;;;17.34;38.91
57086;BME280;42964;42.910;23.792;2023-04-23T17:02:39;97380.81;;;17.18;41.19
57086;BME280;42964;42.910;23.792;2023-04-23T17:07:39;97392.06;;;16.95;41.84
57086;BME280;42964;42.910;23.792;2023-04-23T17:12:41;97390.28;;;16.67;41.80
57086;BME280;42964;42.910;23.792;2023-04-23T17:17:40;97393.00;;;16.36;42.35
57086;BME280;42964;42.910;23.792;2023-04-23T17:22:39;97366.44;;;15.89;43.25
57086;BME280;42964;42.910;23.792;2023-04-23T17:27:38;97398.09;;;15.80;45.18
57086;BME280;42964;42.910;23.792;2023-04-23T17:32:37;97397.16;;;15.48;45.35
57086;BME280;42964;42.910;23.792;2023-04-23T17:37:36;97392.69;;;15.20;45.65
57086;BME280;42964;42.910;23.792;2023-04-23T17:42:35;97401.28;;;14.88;46.72
57086;BME280;42964;42.910;23.792;2023-04-23T17:47:34;97400.25;;;14.56;47.74
57086;BME280;42964;42.910;23.792;2023-04-23T17:52:34;97402.59;;;14.28;48.12
57086;BME280;42964;42.910;23.792;2023-04-23T17:57:33;97417.97;;;14.02;49.27
57086;BME280;42964;42.910;23.792;2023-04-23T18:02:33;97426.22;;;13.80;49.80
57086;BME280;42964;42.910;23.792;2023-04-23T18:07:38;97425.38;;;13.78;50.67
57086;BME280;42964;42.910;23.792;2023-04-23T18:12:38;97425.81;;;13.55;52.89
57086;BME280;42964;42.910;23.792;2023-04-23T18:17:37;97429.47;;;13.43;53.81
57086;BME280;42964;42.910;23.792;2023-04-23T18:22:37;97421.94;;;13.25;55.03
57086;BME280;42964;42.910;23.792;2023-04-23T18:27:36;97430.03;;;13.09;55.50
57086;BME280;42964;42.910;23.792;2023-04-23T18:32:35;97436.44;;;12.88;55.53
57086;BME280;42964;42.910;23.792;2023-04-23T18:37:47;97440.97;;;12.76;56.58
57086;BME280;42964;42.910;23.792;2023-04-23T18:42:46;97451.44;;;12.69;57.69
57086;BME280;42964;42.910;23.792;2023-04-23T18:47:55;97457.81;;;12.48;58.87
57086;BME280;42964;42.910;23.792;2023-04-23T18:52:54;97454.41;;;12.46;60.10
57086;BME280;42964;42.910;23.792;2023-04-23T18:57:53;97453.69;;;12.35;59.88
57086;BME280;42964;42.910;23.792;2023-04-23T19:02:53;97452.13;;;12.19;60.15
57086;BME280;42964;42.910;23.792;2023-04-23T19:07:52;97452.91;;;12.22;59.17
57086;BME280;42964;42.910;23.792;2023-04-23T19:12:52;97451.28;;;12.15;58.41
57086;BME280;42964;42.910;23.792;2023-04-23T19:17:51;97442.56;;;12.18;56.59
57086;BME280;42964;42.910;23.792;2023-04-23T19:22:50;97420.91;;;12.17;55.12
57086;BME280;42964;42.910;23.792;2023-04-23T19:27:49;97444.06;;;12.40;54.65
57086;BME280;42964;42.910;23.792;2023-04-23T19:32:48;97425.72;;;12.48;53.11
57086;BME280;42964;42.910;23.792;2023-04-23T19:37:47;97409.34;;;12.41;52.37
57086;BME280;42964;42.910;23.792;2023-04-23T19:42:46;97427.28;;;12.63;52.10
57086;BME280;42964;42.910;23.792;2023-04-23T19:47:45;97421.91;;;12.73;51.54
57086;BME280;42964;42.910;23.792;2023-04-23T19:52:44;97422.66;;;12.82;51.36
57086;BME280;42964;42.910;23.792;2023-04-23T19:57:43;97421.75;;;12.83;50.83
57086;BME280;42964;42.910;23.792;2023-04-23T20:02:42;97408.88;;;12.75;50.97
57086;BME280;42964;42.910;23.792;2023-04-23T20:07:41;97430.34;;;12.88;50.92
57086;BME280;42964;42.910;23.792;2023-04-23T20:12:40;97392.47;;;12.68;50.94
57086;BME280;42964;42.910;23.792;2023-04-23T20:17:39;97440.81;;;12.86;51.60
57086;BME280;42964;42.910;23.792;2023-04-23T20:22:38;97435.69;;;12.82;51.67
57086;BME280;42964;42.910;23.792;2023-04-23T20:27:37;97442.78;;;12.70;52.47
57086;BME280;42964;42.910;23.792;2023-04-23T20:32:36;97276.38;;;11.34;54.87
57086;BME280;42964;42.910;23.792;2023-04-23T20:37:35;97441.91;;;12.02;56.35
57086;BME280;42964;42.910;23.792;2023-04-23T20:42:34;97438.53;;;11.95;56.91
57086;BME280;42964;42.910;23.792;2023-04-23T20:47:36;97442.22;;;11.73;57.14
57086;BME280;42964;42.910;23.792;2023-04-23T20:52:35;97440.47;;;11.73;57.08
57086;BME280;42964;42.910;23.792;2023-04-23T20:57:34;97446.84;;;11.43;57.97
57086;BME280;42964;42.910;23.792;2023-04-23T21:02:34;97432.31;;;11.22;59.40
57086;BME280;42964;42.910;23.792;2023-04-23T21:07:35;97437.63;;;11.11;60.45
57086;BME280;42964;42.910;23.792;2023-04-23T21:12:34;97436.84;;;11.01;61.51
57086;BME280;42964;42.910;23.792;2023-04-23T21:17:33;97437.78;;;10.88;63.04
57086;BME280;42964;42.910;23.792;2023-04-23T21:22:32;97419.00;;;10.48;66.04
57086;BME280;42964;42.910;23.792;2023-04-23T21:27:31;97445.84;;;10.45;65.84
57086;BME280;42964;42.910;23.792;2023-04-23T21:32:30;97434.69;;;10.26;66.11
57086;BME280;42964;42.910;23.792;2023-04-23T21:37:29;97432.06;;;10.28;65.90
57086;BME280;42964;42.910;23.792;2023-04-23T21:42:28;97424.28;;;10.28;65.42
57086;BME280;42964;42.910;23.792;2023-04-23T21:47:27;97413.97;;;10.22;65.78
57086;BME280;42964;42.910;23.792;2023-04-23T21:52:26;97422.66;;;10.08;68.56
57086;BME280;42964;42.910;23.792;2023-04-23T21:57:25;97420.09;;;10.04;68.94
57086;BME280;42964;42.910;23.792;2023-04-23T22:02:24;97421.09;;;9.55;72.33
57086;BME280;42964;42.910;23.792;2023-04-23T22:07:24;97411.66;;;9.22;73.95
57086;BME280;42964;42.910;23.792;2023-04-23T22:12:24;97415.97;;;9.06;74.16
57086;BME280;42964;42.910;23.792;2023-04-23T22:17:23;97413.38;;;9.07;73.53
57086;BME280;42964;42.910;23.792;2023-04-23T22:22:23;97364.22;;;8.78;74.11
57086;BME280;42964;42.910;23.792;2023-04-23T22:27:22;97388.38;;;8.68;76.25
57086;BME280;42964;42.910;23.792;2023-04-23T22:32:21;97390.97;;;8.77;76.07
57086;BME280;42964;42.910;23.792;2023-04-23T22:37:20;97369.41;;;8.70;76.95
57086;BME280;42964;42.910;23.792;2023-04-23T22:42:19;97382.34;;;8.84;75.61
57086;BME280;42964;42.910;23.792;2023-04-23T22:47:18;97370.22;;;9.06;72.32
57086;BME280;42964;42.910;23.792;2023-04-23T22:52:17;97371.13;;;9.28;72.48
57086;BME280;42964;42.910;23.792;2023-04-23T22:57:16;97378.84;;;9.27;73.33
57086;BME280;42964;42.910;23.792;2023-04-23T23:02:15;97371.09;;;9.36;71.97
57086;BME280;42964;42.910;23.792;2023-04-23T23:07:14;97377.03;;;9.64;63.73
57086;BME280;42964;42.910;23.792;2023-04-23T23:12:13;97373.25;;;10.36;60.16
57086;BME280;42964;42.910;23.792;2023-04-23T23:17:12;97384.16;;;10.81;61.92
57086;BME280;42964;42.910;23.792;2023-04-23T23:22:11;97373.81;;;10.78;63.62
57086;BME280;42964;42.910;23.792;2023-04-23T23:27:10;97355.81;;;10.55;64.48
57086;BME280;42964;42.910;23.792;2023-04-23T23:32:09;97358.53;;;10.35;65.56
57086;BME280;42964;42.910;23.792;2023-04-23T23:37:08;97335.25;;;10.27;66.17
57086;BME280;42964;42.910;23.792;2023-04-23T23:42:07;97337.03;;;10.20;67.10
57086;BME280;42964;42.910;23.792;2023-04-23T23:47:06;97320.72;;;10.03;67.09
57086;BME280;42964;42.910;23.792;2023-04-23T23:52:05;97340.59;;;10.04;62.96
57086;BME280;42964;42.910;23.792;2023-04-23T23:57:04;97316.88;;;10.59;58.80
